sensor_id;sensor_type;location;lat;lon;timestamp;P1;durP1;ratioP1;P2;durP2;ratioP2
40669;SDS011;26355;45.528;9.234;2023-07-24T00:01:27;23.70;;;12.20;;
40669;SDS011;26355;45.528;9.234;2023-07-24T00:03:53;24.10;;;11.68;;
40669;SDS011;26355;45.528;9.234;2023-07-24T00:06:19;23.15;;;11.65;;
40669;SDS011;26355;45.528;9.234;2023-07-24T00:08:45;22.98;;;11.65;;
40669;SDS011;26355;45.528;9.234;2023-07-24T00:11:10;23.33;;;10.82;;
40669;SDS011;26355;45.528;9.234;2023-07-24T00:13:36;22.48;;;11.98;;
40669;SDS011;26355;45.528;9.234;2023-07-24T00:16:06;22.63;;;11.65;;
40669;SDS011;26355;45.528;9.234;2023-07-24T00:18:32;23.15;;;11.90;;
40669;SDS011;26355;45.528;9.234;2023-07-24T00:20:58;24.17;;;11.68;;
40669;SDS011;26355;45.528;9.234;2023-07-24T00:23:23;23.60;;;12.05;;
40669;SDS011;26355;45.528;9.234;2023-07-24T00:25:49;21.85;;;11.70;;
40669;SDS011;26355;45.528;9.234;2023-07-24T00:28:14;21.98;;;12.07;;
40669;SDS011;26355;45.528;9.234;2023-07-24T00:30:40;22.08;;;11.52;;
40669;SDS011;26355;45.528;9.234;2023-07-24T00:33:07;22.08;;;11.15;;
40669;SDS011;26355;45.528;9.234;2023-07-24T00:35:32;22.85;;;10.75;;
40669;SDS011;26355;45.528;9.234;2023-07-24T00:37:58;22.88;;;11.25;;
40669;SDS011;26355;45.528;9.234;2023-07-24T00:40:23;23.30;;;11.25;;
40669;SDS011;26355;45.528;9.234;2023-07-24T00:42:49;23.48;;;11.77;;
40669;SDS011;26355;45.528;9.234;2023-07-24T00:45:15;23.15;;;11.70;;
40669;SDS011;26355;45.528;9.234;2023-07-24T00:47:41;22.45;;;11.15;;
40669;SDS011;26355;45.528;9.234;2023-07-24T00:52:34;20.98;;;11.48;;
40669;SDS011;26355;45.528;9.234;2023-07-24T00:55:00;23.00;;;11.32;;
40669;SDS011;26355;45.528;9.234;2023-07-24T00:57:26;24.00;;;12.68;;
40669;SDS011;26355;45.528;9.234;2023-07-24T00:59:51;22.40;;;12.10;;
40669;SDS011;26355;45.528;9.234;2023-07-24T01:02:17;24.00;;;12.23;;
40669;SDS011;26355;45.528;9.234;2023-07-24T01:04:43;22.38;;;11.77;;
40669;SDS011;26355;45.528;9.234;2023-07-24T01:07:09;24.35;;;11.90;;
40669;SDS011;26355;45.528;9.234;2023-07-24T01:09:34;21.60;;;10.73;;
40669;SDS011;26355;45.528;9.234;2023-07-24T01:12:04;24.27;;;13.13;;
40669;SDS011;26355;45.528;9.234;2023-07-24T01:14:43;23.58;;;12.27;;
40669;SDS011;26355;45.528;9.234;2023-07-24T01:17:13;23.77;;;12.52;;
40669;SDS011;26355;45.528;9.234;2023-07-24T01:19:43;23.73;;;12.20;;
40669;SDS011;26355;45.528;9.234;2023-07-24T01:27:25;24.38;;;13.07;;
40669;SDS011;26355;45.528;9.234;2023-07-24T01:29:51;22.67;;;12.43;;
40669;SDS011;26355;45.528;9.234;2023-07-24T01:32:17;24.08;;;12.43;;
40669;SDS011;26355;45.528;9.234;2023-07-24T01:37:09;22.13;;;12.40;;
40669;SDS011;26355;45.528;9.234;2023-07-24T01:39:37;22.98;;;12.75;;
40669;SDS011;26355;45.528;9.234;2023-07-24T01:42:03;26.13;;;13.90;;
40669;SDS011;26355;45.528;9.234;2023-07-24T01:44:29;24.00;;;13.07;;
40669;SDS011;26355;45.528;9.234;2023-07-24T01:46:55;24.77;;;12.98;;
40669;SDS011;26355;45.528;9.234;2023-07-24T01:49:20;23.23;;;12.50;;
40669;SDS011;26355;45.528;9.234;2023-07-24T01:51:46;23.60;;;12.82;;
40669;SDS011;26355;45.528;9.234;2023-07-24T01:54:12;23.17;;;11.43;;
40669;SDS011;26355;45.528;9.234;2023-07-24T01:56:37;22.10;;;11.95;;
40669;SDS011;26355;45.528;9.234;2023-07-24T02:01:30;24.23;;;12.30;;
40669;SDS011;26355;45.528;9.234;2023-07-24T02:03:59;23.80;;;11.93;;
40669;SDS011;26355;45.528;9.234;2023-07-24T02:06:25;23.43;;;11.93;;
40669;SDS011;26355;45.528;9.234;2023-07-24T02:08:51;23.50;;;12.35;;
40669;SDS011;26355;45.528;9.234;2023-07-24T02:11:16;24.10;;;11.55;;
40669;SDS011;26355;45.528;9.234;2023-07-24T02:13:45;23.02;;;12.13;;
40669;SDS011;26355;45.528;9.234;2023-07-24T02:16:12;22.67;;;11.95;;
40669;SDS011;26355;45.528;9.234;2023-07-24T02:18:38;22.33;;;11.13;;
40669;SDS011;26355;45.528;9.234;2023-07-24T02:21:06;22.25;;;11.63;;
40669;SDS011;26355;45.528;9.234;2023-07-24T02:23:31;22.73;;;11.75;;
40669;SDS011;26355;45.528;9.234;2023-07-24T02:25:57;22.38;;;12.30;;
40669;SDS011;26355;45.528;9.234;2023-07-24T02:28:22;23.70;;;12.85;;
40669;SDS011;26355;45.528;9.234;2023-07-24T02:30:48;23.45;;;12.02;;
40669;SDS011;26355;45.528;9.234;2023-07-24T02:33:14;22.63;;;12.40;;
40669;SDS011;26355;45.528;9.234;2023-07-24T02:35:39;26.52;;;12.57;;
40669;SDS011;26355;45.528;9.234;2023-07-24T02:38:06;23.27;;;12.43;;
40669;SDS011;26355;45.528;9.234;2023-07-24T02:40:32;22.17;;;12.55;;
40669;SDS011;26355;45.528;9.234;2023-07-24T02:42:58;23.33;;;13.35;;
40669;SDS011;26355;45.528;9.234;2023-07-24T02:45:23;23.50;;;12.02;;
40669;SDS011;26355;45.528;9.234;2023-07-24T02:47:49;22.63;;;12.10;;
40669;SDS011;26355;45.528;9.234;2023-07-24T02:50:14;22.75;;;12.88;;
40669;SDS011;26355;45.528;9.234;2023-07-24T02:52:40;22.58;;;11.55;;
40669;SDS011;26355;45.528;9.234;2023-07-24T02:55:05;22.90;;;12.38;;
40669;SDS011;26355;45.528;9.234;2023-07-24T02:57:31;27.23;;;11.98;;
40669;SDS011;26355;45.528;9.234;2023-07-24T02:59:57;23.33;;;12.02;;
40669;SDS011;26355;45.528;9.234;2023-07-24T03:02:22;23.02;;;12.35;;
40669;SDS011;26355;45.528;9.234;2023-07-24T03:04:48;25.08;;;12.95;;
40669;SDS011;26355;45.528;9.234;2023-07-24T03:07:13;22.95;;;12.68;;
40669;SDS011;26355;45.528;9.234;2023-07-24T03:09:39;24.67;;;12.70;;
40669;SDS011;26355;45.528;9.234;2023-07-24T03:12:05;23.98;;;13.25;;
40669;SDS011;26355;45.528;9.234;2023-07-24T03:14:30;23.98;;;13.45;;
40669;SDS011;26355;45.528;9.234;2023-07-24T03:16:56;23.08;;;13.27;;
40669;SDS011;26355;45.528;9.234;2023-07-24T03:19:22;22.90;;;13.02;;
40669;SDS011;26355;45.528;9.234;2023-07-24T03:21:47;23.88;;;11.90;;
40669;SDS011;26355;45.528;9.234;2023-07-24T03:24:13;25.30;;;12.60;;
40669;SDS011;26355;45.528;9.234;2023-07-24T03:26:38;23.23;;;12.90;;
40669;SDS011;26355;45.528;9.234;2023-07-24T03:29:04;24.50;;;13.40;;
40669;SDS011;26355;45.528;9.234;2023-07-24T03:31:30;22.00;;;12.00;;
40669;SDS011;26355;45.528;9.234;2023-07-24T03:33:55;23.00;;;12.82;;
40669;SDS011;26355;45.528;9.234;2023-07-24T03:36:21;25.13;;;12.55;;
40669;SDS011;26355;45.528;9.234;2023-07-24T03:38:46;22.83;;;12.32;;
40669;SDS011;26355;45.528;9.234;2023-07-24T03:41:12;23.88;;;12.82;;
40669;SDS011;26355;45.528;9.234;2023-07-24T03:43:37;23.25;;;12.52;;
40669;SDS011;26355;45.528;9.234;2023-07-24T03:46:03;25.00;;;12.80;;
40669;SDS011;26355;45.528;9.234;2023-07-24T03:48:29;26.15;;;12.88;;
40669;SDS011;26355;45.528;9.234;2023-07-24T03:50:58;23.30;;;12.15;;
40669;SDS011;26355;45.528;9.234;2023-07-24T03:53:25;22.65;;;12.30;;
40669;SDS011;26355;45.528;9.234;2023-07-24T03:55:50;21.15;;;11.45;;
40669;SDS011;26355;45.528;9.234;2023-07-24T03:58:16;23.45;;;12.75;;
40669;SDS011;26355;45.528;9.234;2023-07-24T04:00:41;22.77;;;11.90;;
40669;SDS011;26355;45.528;9.234;2023-07-24T04:03:07;24.88;;;11.93;;
40669;SDS011;26355;45.528;9.234;2023-07-24T04:05:34;24.02;;;11.73;;
40669;SDS011;26355;45.528;9.234;2023-07-24T04:10:25;23.43;;;11.47;;
40669;SDS011;26355;45.528;9.234;2023-07-24T04:12:51;22.73;;;11.15;;
40669;SDS011;26355;45.528;9.234;2023-07-24T04:15:17;22.48;;;11.32;;
40669;SDS011;26355;45.528;9.234;2023-07-24T04:17:42;23.77;;;11.70;;
40669;SDS011;26355;45.528;9.234;2023-07-24T04:20:08;24.20;;;11.45;;
40669;SDS011;26355;45.528;9.234;2023-07-24T04:22:34;23.88;;;11.68;;
40669;SDS011;26355;45.528;9.234;2023-07-24T04:25:00;24.38;;;12.48;;
40669;SDS011;26355;45.528;9.234;2023-07-24T04:27:26;22.95;;;11.82;;
40669;SDS011;26355;45.528;9.234;2023-07-24T04:29:51;22.58;;;11.57;;
40669;SDS011;26355;45.528;9.234;2023-07-24T04:32:17;22.15;;;12.05;;
40669;SDS011;26355;45.528;9.234;2023-07-24T04:34:42;23.08;;;11.20;;
40669;SDS011;26355;45.528;9.234;2023-07-24T04:37:08;24.00;;;11.73;;
40669;SDS011;26355;45.528;9.234;2023-07-24T04:39:33;23.42;;;11.93;;
40669;SDS011;26355;45.528;9.234;2023-07-24T04:41:59;24.65;;;12.27;;
40669;SDS011;26355;45.528;9.234;2023-07-24T04:44:24;22.50;;;11.93;;
40669;SDS011;26355;45.528;9.234;2023-07-24T04:46:50;23.90;;;11.70;;
40669;SDS011;26355;45.528;9.234;2023-07-24T04:49:16;21.80;;;11.18;;
40669;SDS011;26355;45.528;9.234;2023-07-24T04:51:41;23.20;;;11.25;;
40669;SDS011;26355;45.528;9.234;2023-07-24T04:54:07;23.45;;;12.18;;
40669;SDS011;26355;45.528;9.234;2023-07-24T04:56:32;25.00;;;11.63;;
40669;SDS011;26355;45.528;9.234;2023-07-24T04:58:58;23.00;;;11.45;;
40669;SDS011;26355;45.528;9.234;2023-07-24T05:01:24;22.52;;;11.57;;
40669;SDS011;26355;45.528;9.234;2023-07-24T05:03:49;23.38;;;12.02;;
40669;SDS011;26355;45.528;9.234;2023-07-24T05:06:15;24.35;;;13.27;;
40669;SDS011;26355;45.528;9.234;2023-07-24T05:08:40;25.52;;;12.80;;
40669;SDS011;26355;45.528;9.234;2023-07-24T05:11:06;26.17;;;13.63;;
40669;SDS011;26355;45.528;9.234;2023-07-24T05:13:31;23.10;;;12.45;;
40669;SDS011;26355;45.528;9.234;2023-07-24T05:15:57;25.00;;;12.60;;
40669;SDS011;26355;45.528;9.234;2023-07-24T05:18:22;24.90;;;12.93;;
40669;SDS011;26355;45.528;9.234;2023-07-24T05:20:48;26.08;;;12.77;;
40669;SDS011;26355;45.528;9.234;2023-07-24T05:23:16;24.85;;;13.27;;
40669;SDS011;26355;45.528;9.234;2023-07-24T05:25:42;23.77;;;12.43;;
40669;SDS011;26355;45.528;9.234;2023-07-24T05:28:07;23.05;;;11.85;;
40669;SDS011;26355;45.528;9.234;2023-07-24T05:30:33;23.80;;;11.82;;
40669;SDS011;26355;45.528;9.234;2023-07-24T05:32:59;25.40;;;13.05;;
40669;SDS011;26355;45.528;9.234;2023-07-24T05:35:25;23.40;;;12.50;;
40669;SDS011;26355;45.528;9.234;2023-07-24T05:37:51;23.30;;;11.88;;
40669;SDS011;26355;45.528;9.234;2023-07-24T05:40:16;21.90;;;11.45;;
40669;SDS011;26355;45.528;9.234;2023-07-24T05:42:42;23.75;;;12.00;;
40669;SDS011;26355;45.528;9.234;2023-07-24T05:45:08;24.25;;;11.70;;
40669;SDS011;26355;45.528;9.234;2023-07-24T05:47:35;22.70;;;11.98;;
40669;SDS011;26355;45.528;9.234;2023-07-24T05:50:01;25.05;;;12.50;;
40669;SDS011;26355;45.528;9.234;2023-07-24T05:52:27;23.25;;;12.32;;
40669;SDS011;26355;45.528;9.234;2023-07-24T05:54:53;25.10;;;11.30;;
40669;SDS011;26355;45.528;9.234;2023-07-24T05:57:19;24.05;;;12.15;;
40669;SDS011;26355;45.528;9.234;2023-07-24T05:59:44;21.65;;;11.30;;
40669;SDS011;26355;45.528;9.234;2023-07-24T06:02:10;25.30;;;12.35;;
40669;SDS011;26355;45.528;9.234;2023-07-24T06:04:36;26.88;;;11.43;;
40669;SDS011;26355;45.528;9.234;2023-07-24T06:07:01;24.60;;;11.57;;
40669;SDS011;26355;45.528;9.234;2023-07-24T06:09:27;23.85;;;11.70;;
40669;SDS011;26355;45.528;9.234;2023-07-24T06:11:53;23.35;;;11.48;;
40669;SDS011;26355;45.528;9.234;2023-07-24T06:14:18;24.50;;;11.95;;
40669;SDS011;26355;45.528;9.234;2023-07-24T06:16:44;22.85;;;11.00;;
40669;SDS011;26355;45.528;9.234;2023-07-24T06:19:10;22.67;;;11.02;;
40669;SDS011;26355;45.528;9.234;2023-07-24T06:21:35;24.00;;;11.43;;
40669;SDS011;26355;45.528;9.234;2023-07-24T06:24:01;22.95;;;11.55;;
40669;SDS011;26355;45.528;9.234;2023-07-24T06:26:45;24.88;;;11.98;;
40669;SDS011;26355;45.528;9.234;2023-07-24T06:29:11;23.15;;;12.43;;
40669;SDS011;26355;45.528;9.234;2023-07-24T06:31:37;26.90;;;12.68;;
40669;SDS011;26355;45.528;9.234;2023-07-24T06:34:02;24.63;;;12.20;;
40669;SDS011;26355;45.528;9.234;2023-07-24T06:36:28;24.30;;;12.65;;
40669;SDS011;26355;45.528;9.234;2023-07-24T06:38:53;25.00;;;12.40;;
40669;SDS011;26355;45.528;9.234;2023-07-24T06:41:19;24.80;;;11.85;;
40669;SDS011;26355;45.528;9.234;2023-07-24T06:43:46;25.23;;;12.57;;
40669;SDS011;26355;45.528;9.234;2023-07-24T06:46:11;26.33;;;12.48;;
40669;SDS011;26355;45.528;9.234;2023-07-24T06:48:37;26.05;;;13.05;;
40669;SDS011;26355;45.528;9.234;2023-07-24T06:51:03;24.23;;;13.32;;
40669;SDS011;26355;45.528;9.234;2023-07-24T06:53:28;24.45;;;13.57;;
40669;SDS011;26355;45.528;9.234;2023-07-24T06:55:54;26.60;;;13.63;;
40669;SDS011;26355;45.528;9.234;2023-07-24T06:58:20;23.95;;;13.02;;
40669;SDS011;26355;45.528;9.234;2023-07-24T07:00:45;27.58;;;13.10;;
40669;SDS011;26355;45.528;9.234;2023-07-24T07:03:11;24.77;;;13.60;;
40669;SDS011;26355;45.528;9.234;2023-07-24T07:05:36;26.55;;;13.15;;
40669;SDS011;26355;45.528;9.234;2023-07-24T07:08:02;24.70;;;13.07;;
40669;SDS011;26355;45.528;9.234;2023-07-24T07:10:27;24.40;;;12.15;;
40669;SDS011;26355;45.528;9.234;2023-07-24T07:12:53;23.27;;;12.15;;
40669;SDS011;26355;45.528;9.234;2023-07-24T07:15:20;22.42;;;12.18;;
40669;SDS011;26355;45.528;9.234;2023-07-24T07:17:45;22.90;;;11.43;;
40669;SDS011;26355;45.528;9.234;2023-07-24T07:20:11;23.13;;;12.18;;
40669;SDS011;26355;45.528;9.234;2023-07-24T07:22:36;26.88;;;12.90;;
40669;SDS011;26355;45.528;9.234;2023-07-24T07:25:02;24.30;;;11.80;;
40669;SDS011;26355;45.528;9.234;2023-07-24T07:27:28;24.05;;;11.15;;
40669;SDS011;26355;45.528;9.234;2023-07-24T07:29:53;23.15;;;12.05;;
40669;SDS011;26355;45.528;9.234;2023-07-24T07:32:19;26.45;;;12.65;;
40669;SDS011;26355;45.528;9.234;2023-07-24T07:34:44;25.13;;;12.02;;
40669;SDS011;26355;45.528;9.234;2023-07-24T07:37:10;22.65;;;12.23;;
40669;SDS011;26355;45.528;9.234;2023-07-24T07:39:35;25.23;;;13.00;;
40669;SDS011;26355;45.528;9.234;2023-07-24T07:42:01;25.80;;;12.43;;
40669;SDS011;26355;45.528;9.234;2023-07-24T07:44:27;25.05;;;12.77;;
40669;SDS011;26355;45.528;9.234;2023-07-24T07:46:52;24.63;;;12.95;;
40669;SDS011;26355;45.528;9.234;2023-07-24T07:49:18;24.42;;;12.70;;
40669;SDS011;26355;45.528;9.234;2023-07-24T07:51:43;25.10;;;12.93;;
40669;SDS011;26355;45.528;9.234;2023-07-24T07:54:09;24.08;;;12.77;;
40669;SDS011;26355;45.528;9.234;2023-07-24T07:56:34;26.85;;;12.98;;
40669;SDS011;26355;45.528;9.234;2023-07-24T07:59:00;23.70;;;12.73;;
40669;SDS011;26355;45.528;9.234;2023-07-24T08:01:25;26.08;;;12.02;;
40669;SDS011;26355;45.528;9.234;2023-07-24T08:03:51;24.90;;;12.00;;
40669;SDS011;26355;45.528;9.234;2023-07-24T08:06:16;27.00;;;12.23;;
40669;SDS011;26355;45.528;9.234;2023-07-24T08:08:42;24.80;;;11.88;;
40669;SDS011;26355;45.528;9.234;2023-07-24T08:11:07;24.13;;;11.73;;
40669;SDS011;26355;45.528;9.234;2023-07-24T08:13:33;25.40;;;12.45;;
40669;SDS011;26355;45.528;9.234;2023-07-24T08:15:59;24.52;;;11.98;;
40669;SDS011;26355;45.528;9.234;2023-07-24T08:18:27;25.35;;;12.02;;
40669;SDS011;26355;45.528;9.234;2023-07-24T08:20:52;26.20;;;13.02;;
40669;SDS011;26355;45.528;9.234;2023-07-24T08:23:18;22.92;;;11.68;;
40669;SDS011;26355;45.528;9.234;2023-07-24T08:25:55;24.90;;;13.13;;
40669;SDS011;26355;45.528;9.234;2023-07-24T08:28:21;22.77;;;11.35;;
40669;SDS011;26355;45.528;9.234;2023-07-24T08:30:55;21.35;;;10.82;;
40669;SDS011;26355;45.528;9.234;2023-07-24T08:33:22;22.38;;;11.05;;
40669;SDS011;26355;45.528;9.234;2023-07-24T08:35:57;22.60;;;11.50;;
40669;SDS011;26355;45.528;9.234;2023-07-24T08:38:27;23.23;;;11.38;;
40669;SDS011;26355;45.528;9.234;2023-07-24T08:41:02;24.90;;;12.40;;
40669;SDS011;26355;45.528;9.234;2023-07-24T08:43:28;24.25;;;11.73;;
40669;SDS011;26355;45.528;9.234;2023-07-24T08:45:58;22.08;;;11.55;;
40669;SDS011;26355;45.528;9.234;2023-07-24T08:48:30;23.63;;;12.07;;
40669;SDS011;26355;45.528;9.234;2023-07-24T08:53:30;23.27;;;10.68;;
40669;SDS011;26355;45.528;9.234;2023-07-24T08:58:24;25.67;;;12.32;;
40669;SDS011;26355;45.528;9.234;2023-07-24T09:00:49;24.67;;;12.07;;
40669;SDS011;26355;45.528;9.234;2023-07-24T09:03:16;24.45;;;11.45;;
40669;SDS011;26355;45.528;9.234;2023-07-24T09:05:43;21.67;;;11.60;;
40669;SDS011;26355;45.528;9.234;2023-07-24T09:08:09;22.98;;;11.63;;
40669;SDS011;26355;45.528;9.234;2023-07-24T09:10:35;24.63;;;12.35;;
40669;SDS011;26355;45.528;9.234;2023-07-24T09:13:01;23.13;;;11.13;;
40669;SDS011;26355;45.528;9.234;2023-07-24T09:15:29;22.00;;;11.52;;
40669;SDS011;26355;45.528;9.234;2023-07-24T09:18:04;25.15;;;12.05;;
40669;SDS011;26355;45.528;9.234;2023-07-24T09:20:37;24.35;;;11.88;;
40669;SDS011;26355;45.528;9.234;2023-07-24T09:23:04;24.80;;;11.85;;
40669;SDS011;26355;45.528;9.234;2023-07-24T09:25:33;23.73;;;12.73;;
40669;SDS011;26355;45.528;9.234;2023-07-24T09:27:59;25.63;;;12.05;;
40669;SDS011;26355;45.528;9.234;2023-07-24T09:30:25;25.15;;;11.70;;
40669;SDS011;26355;45.528;9.234;2023-07-24T09:32:54;22.83;;;12.18;;
40669;SDS011;26355;45.528;9.234;2023-07-24T09:35:20;23.73;;;11.77;;
40669;SDS011;26355;45.528;9.234;2023-07-24T09:37:52;25.92;;;12.98;;
40669;SDS011;26355;45.528;9.234;2023-07-24T09:40:27;25.90;;;12.80;;
40669;SDS011;26355;45.528;9.234;2023-07-24T09:42:53;25.42;;;12.43;;
40669;SDS011;26355;45.528;9.234;2023-07-24T09:45:18;26.20;;;12.77;;
40669;SDS011;26355;45.528;9.234;2023-07-24T09:47:44;22.52;;;12.18;;
40669;SDS011;26355;45.528;9.234;2023-07-24T09:50:10;23.75;;;11.75;;
40669;SDS011;26355;45.528;9.234;2023-07-24T09:52:36;22.95;;;11.30;;
40669;SDS011;26355;45.528;9.234;2023-07-24T09:55:11;22.98;;;11.00;;
40669;SDS011;26355;45.528;9.234;2023-07-24T09:57:41;23.98;;;11.35;;
40669;SDS011;26355;45.528;9.234;2023-07-24T10:00:09;23.00;;;12.13;;
40669;SDS011;26355;45.528;9.234;2023-07-24T10:02:36;22.80;;;12.65;;
40669;SDS011;26355;45.528;9.234;2023-07-24T10:05:02;24.25;;;11.98;;
40669;SDS011;26355;45.528;9.234;2023-07-24T10:07:28;23.10;;;11.68;;
40669;SDS011;26355;45.528;9.234;2023-07-24T10:09:54;24.25;;;12.35;;
40669;SDS011;26355;45.528;9.234;2023-07-24T10:12:20;22.98;;;11.10;;
40669;SDS011;26355;45.528;9.234;2023-07-24T10:17:13;21.30;;;11.25;;
40669;SDS011;26355;45.528;9.234;2023-07-24T10:19:39;24.45;;;11.85;;
40669;SDS011;26355;45.528;9.234;2023-07-24T10:22:08;23.10;;;12.18;;
40669;SDS011;26355;45.528;9.234;2023-07-24T10:24:34;24.20;;;12.43;;
40669;SDS011;26355;45.528;9.234;2023-07-24T10:27:02;22.30;;;11.43;;
40669;SDS011;26355;45.528;9.234;2023-07-24T10:29:28;23.27;;;11.52;;
40669;SDS011;26355;45.528;9.234;2023-07-24T10:31:54;24.15;;;12.00;;
40669;SDS011;26355;45.528;9.234;2023-07-24T10:34:20;24.07;;;12.37;;
40669;SDS011;26355;45.528;9.234;2023-07-24T10:36:46;24.65;;;11.63;;
40669;SDS011;26355;45.528;9.234;2023-07-24T10:39:15;24.33;;;12.32;;
40669;SDS011;26355;45.528;9.234;2023-07-24T10:41:45;25.15;;;11.27;;
40669;SDS011;26355;45.528;9.234;2023-07-24T10:44:11;21.38;;;11.52;;
40669;SDS011;26355;45.528;9.234;2023-07-24T10:46:40;22.75;;;11.45;;
40669;SDS011;26355;45.528;9.234;2023-07-24T10:49:09;25.60;;;11.65;;
40669;SDS011;26355;45.528;9.234;2023-07-24T10:51:36;21.23;;;10.52;;
40669;SDS011;26355;45.528;9.234;2023-07-24T10:54:04;23.70;;;12.27;;
40669;SDS011;26355;45.528;9.234;2023-07-24T10:56:30;24.50;;;11.40;;
40669;SDS011;26355;45.528;9.234;2023-07-24T10:58:56;23.42;;;11.45;;
40669;SDS011;26355;45.528;9.234;2023-07-24T11:01:27;22.48;;;11.68;;
40669;SDS011;26355;45.528;9.234;2023-07-24T11:03:52;23.83;;;10.60;;
40669;SDS011;26355;45.528;9.234;2023-07-24T11:06:20;22.58;;;11.63;;
40669;SDS011;26355;45.528;9.234;2023-07-24T11:08:51;23.75;;;12.50;;
40669;SDS011;26355;45.528;9.234;2023-07-24T11:11:18;24.73;;;12.15;;
40669;SDS011;26355;45.528;9.234;2023-07-24T11:13:43;23.98;;;10.68;;
40669;SDS011;26355;45.528;9.234;2023-07-24T11:16:09;23.17;;;11.45;;
40669;SDS011;26355;45.528;9.234;2023-07-24T11:18:47;22.55;;;10.90;;
40669;SDS011;26355;45.528;9.234;2023-07-24T11:21:14;23.65;;;11.05;;
40669;SDS011;26355;45.528;9.234;2023-07-24T11:23:48;23.23;;;10.98;;
40669;SDS011;26355;45.528;9.234;2023-07-24T11:26:14;21.88;;;10.80;;
40669;SDS011;26355;45.528;9.234;2023-07-24T11:28:41;26.38;;;11.57;;
40669;SDS011;26355;45.528;9.234;2023-07-24T11:31:06;22.58;;;10.55;;
40669;SDS011;26355;45.528;9.234;2023-07-24T11:33:32;25.00;;;11.27;;
40669;SDS011;26355;45.528;9.234;2023-07-24T11:35:58;23.58;;;10.82;;
40669;SDS011;26355;45.528;9.234;2023-07-24T11:38:24;23.83;;;11.05;;
40669;SDS011;26355;45.528;9.234;2023-07-24T11:40:49;23.10;;;10.43;;
40669;SDS011;26355;45.528;9.234;2023-07-24T11:43:22;23.38;;;11.27;;
40669;SDS011;26355;45.528;9.234;2023-07-24T11:45:49;23.25;;;11.25;;
40669;SDS011;26355;45.528;9.234;2023-07-24T11:48:17;23.73;;;10.57;;
40669;SDS011;26355;45.528;9.234;2023-07-24T11:50:47;23.63;;;10.52;;
40669;SDS011;26355;45.528;9.234;2023-07-24T11:53:30;21.58;;;10.13;;
40669;SDS011;26355;45.528;9.234;2023-07-24T11:55:57;23.33;;;10.70;;
40669;SDS011;26355;45.528;9.234;2023-07-24T11:58:27;25.27;;;10.77;;
40669;SDS011;26355;45.528;9.234;2023-07-24T12:00:54;20.73;;;9.05;;
40669;SDS011;26355;45.528;9.234;2023-07-24T12:03:21;19.50;;;6.40;;
40669;SDS011;26355;45.528;9.234;2023-07-24T12:05:47;16.10;;;4.10;;
40669;SDS011;26355;45.528;9.234;2023-07-24T12:08:13;16.60;;;5.28;;
40669;SDS011;26355;45.528;9.234;2023-07-24T12:10:39;15.27;;;4.65;;
40669;SDS011;26355;45.528;9.234;2023-07-24T12:13:06;17.02;;;6.03;;
40669;SDS011;26355;45.528;9.234;2023-07-24T12:15:32;16.50;;;5.63;;
40669;SDS011;26355;45.528;9.234;2023-07-24T12:18:00;15.23;;;5.32;;
40669;SDS011;26355;45.528;9.234;2023-07-24T12:20:26;13.77;;;4.43;;
40669;SDS011;26355;45.528;9.234;2023-07-24T12:22:53;13.45;;;4.07;;
40669;SDS011;26355;45.528;9.234;2023-07-24T12:25:19;12.77;;;3.70;;
40669;SDS011;26355;45.528;9.234;2023-07-24T12:27:45;9.93;;;3.17;;
40669;SDS011;26355;45.528;9.234;2023-07-24T12:30:11;12.85;;;4.10;;
40669;SDS011;26355;45.528;9.234;2023-07-24T12:32:37;12.38;;;4.10;;
40669;SDS011;26355;45.528;9.234;2023-07-24T12:35:03;17.05;;;5.60;;
40669;SDS011;26355;45.528;9.234;2023-07-24T12:37:29;16.52;;;6.28;;
40669;SDS011;26355;45.528;9.234;2023-07-24T12:39:55;17.85;;;6.93;;
40669;SDS011;26355;45.528;9.234;2023-07-24T12:42:21;17.35;;;6.75;;
40669;SDS011;26355;45.528;9.234;2023-07-24T12:44:46;19.27;;;7.32;;
40669;SDS011;26355;45.528;9.234;2023-07-24T12:47:12;19.10;;;7.63;;
40669;SDS011;26355;45.528;9.234;2023-07-24T12:49:37;18.85;;;7.32;;
40669;SDS011;26355;45.528;9.234;2023-07-24T12:52:03;17.88;;;6.70;;
40669;SDS011;26355;45.528;9.234;2023-07-24T12:54:31;18.35;;;7.05;;
40669;SDS011;26355;45.528;9.234;2023-07-24T12:56:57;19.90;;;8.43;;
40669;SDS011;26355;45.528;9.234;2023-07-24T12:59:22;18.77;;;7.43;;
40669;SDS011;26355;45.528;9.234;2023-07-24T13:01:48;19.40;;;8.10;;
40669;SDS011;26355;45.528;9.234;2023-07-24T13:04:13;19.20;;;8.02;;
40669;SDS011;26355;45.528;9.234;2023-07-24T13:06:39;19.95;;;7.63;;
40669;SDS011;26355;45.528;9.234;2023-07-24T13:09:05;18.30;;;7.95;;
40669;SDS011;26355;45.528;9.234;2023-07-24T13:11:30;20.25;;;8.55;;
40669;SDS011;26355;45.528;9.234;2023-07-24T13:13:56;20.27;;;9.10;;
40669;SDS011;26355;45.528;9.234;2023-07-24T13:16:22;21.38;;;8.80;;
40669;SDS011;26355;45.528;9.234;2023-07-24T13:18:48;22.02;;;9.20;;
40669;SDS011;26355;45.528;9.234;2023-07-24T13:21:13;21.42;;;8.57;;
40669;SDS011;26355;45.528;9.234;2023-07-24T13:23:42;21.33;;;10.32;;
40669;SDS011;26355;45.528;9.234;2023-07-24T13:26:08;21.65;;;9.68;;
40669;SDS011;26355;45.528;9.234;2023-07-24T13:28:35;21.95;;;9.93;;
40669;SDS011;26355;45.528;9.234;2023-07-24T13:31:14;21.98;;;10.02;;
40669;SDS011;26355;45.528;9.234;2023-07-24T13:33:41;22.65;;;9.50;;
40669;SDS011;26355;45.528;9.234;2023-07-24T13:36:07;20.63;;;9.57;;
40669;SDS011;26355;45.528;9.234;2023-07-24T13:38:33;23.20;;;9.13;;
40669;SDS011;26355;45.528;9.234;2023-07-24T13:40:59;22.30;;;9.40;;
40669;SDS011;26355;45.528;9.234;2023-07-24T13:43:25;21.58;;;9.90;;
40669;SDS011;26355;45.528;9.234;2023-07-24T13:45:51;21.45;;;9.85;;
40669;SDS011;26355;45.528;9.234;2023-07-24T13:48:16;20.90;;;9.85;;
40669;SDS011;26355;45.528;9.234;2023-07-24T13:50:42;20.63;;;9.00;;
40669;SDS011;26355;45.528;9.234;2023-07-24T13:53:07;22.27;;;9.93;;
40669;SDS011;26355;45.528;9.234;2023-07-24T13:55:33;20.48;;;9.23;;
40669;SDS011;26355;45.528;9.234;2023-07-24T13:57:59;23.58;;;9.80;;
40669;SDS011;26355;45.528;9.234;2023-07-24T14:00:25;19.95;;;8.70;;
40669;SDS011;26355;45.528;9.234;2023-07-24T14:02:51;21.10;;;9.00;;
40669;SDS011;26355;45.528;9.234;2023-07-24T14:05:17;21.08;;;9.43;;
40669;SDS011;26355;45.528;9.234;2023-07-24T14:07:42;20.15;;;8.57;;
40669;SDS011;26355;45.528;9.234;2023-07-24T14:10:09;19.00;;;9.10;;
40669;SDS011;26355;45.528;9.234;2023-07-24T14:12:35;20.92;;;8.82;;
40669;SDS011;26355;45.528;9.234;2023-07-24T14:15:01;20.70;;;8.98;;
40669;SDS011;26355;45.528;9.234;2023-07-24T14:17:27;18.98;;;8.30;;
40669;SDS011;26355;45.528;9.234;2023-07-24T14:19:54;19.23;;;8.40;;
40669;SDS011;26355;45.528;9.234;2023-07-24T14:22:19;21.63;;;9.95;;
40669;SDS011;26355;45.528;9.234;2023-07-24T14:24:45;20.50;;;8.80;;
40669;SDS011;26355;45.528;9.234;2023-07-24T14:27:11;21.43;;;9.13;;
40669;SDS011;26355;45.528;9.234;2023-07-24T14:29:38;19.67;;;8.95;;
40669;SDS011;26355;45.528;9.234;2023-07-24T14:32:04;21.05;;;8.63;;
40669;SDS011;26355;45.528;9.234;2023-07-24T14:34:31;19.05;;;8.70;;
40669;SDS011;26355;45.528;9.234;2023-07-24T14:36:56;22.70;;;10.50;;
40669;SDS011;26355;45.528;9.234;2023-07-24T14:39:22;19.17;;;8.65;;
40669;SDS011;26355;45.528;9.234;2023-07-24T14:41:47;21.20;;;9.27;;